createdAt,value
2019-03-23T00:00:42.244Z,44.65
2019-03-23T00:03:10.264Z,44.93
2019-03-23T00:05:38.714Z,43.68
2019-03-23T00:08:07.230Z,45.23
2019-03-23T00:10:34.995Z,44.93
2019-03-23T00:13:03.643Z,43.65
2019-03-23T00:15:31.479Z,46.30
2019-03-23T00:17:59.419Z,44.33
2019-03-23T00:20:27.112Z,46.23
2019-03-23T00:22:54.820Z,47.17
2019-03-23T00:25:22.408Z,45.67
2019-03-23T00:27:50.497Z,46.00
2019-03-23T00:30:18.212Z,46.40
2019-03-23T00:32:45.802Z,47.27
2019-03-23T00:35:13.628Z,47.27
2019-03-23T00:37:41.327Z,47.65
2019-03-23T00:40:09.511Z,46.55
2019-03-23T00:42:37.442Z,46.65
2019-03-23T00:45:05.721Z,47.03
2019-03-23T00:47:33.424Z,47.00
2019-03-23T00:50:02.822Z,44.27
2019-03-23T00:52:30.677Z,46.08
2019-03-23T00:54:58.405Z,47.10
2019-03-23T00:57:26.180Z,47.25
2019-03-23T00:59:54.899Z,48.60
2019-03-23T01:02:22.565Z,50.15
2019-03-23T01:04:50.470Z,45.78
2019-03-23T01:07:18.218Z,49.10
2019-03-23T01:09:45.755Z,48.40
2019-03-23T01:12:13.346Z,49.48
2019-03-23T01:14:40.916Z,48.63
2019-03-23T01:17:08.565Z,48.50
2019-03-23T01:19:36.211Z,49.77
2019-03-23T01:22:03.936Z,48.00
2019-03-23T01:24:31.478Z,49.95
2019-03-23T01:26:59.606Z,48.68
2019-03-23T01:29:27.678Z,48.00
2019-03-23T01:31:55.335Z,48.15
2019-03-23T01:34:22.898Z,48.98
2019-03-23T01:36:50.410Z,48.48
2019-03-23T01:39:18.014Z,47.13
2019-03-23T01:41:45.603Z,48.55
2019-03-23T01:44:13.168Z,45.65
2019-03-23T01:46:41.318Z,43.87
2019-03-23T01:49:09.312Z,45.03
2019-03-23T01:51:37.536Z,42.75
2019-03-23T01:54:05.222Z,43.68
2019-03-23T01:56:34.199Z,44.23
2019-03-23T01:59:01.723Z,40.28
2019-03-23T02:01:29.527Z,36.00
2019-03-23T02:03:57.086Z,34.80
2019-03-23T02:06:25.260Z,34.88
2019-03-23T02:08:53.034Z,32.90
2019-03-23T02:11:21.775Z,34.50
2019-03-23T02:13:49.666Z,34.43
2019-03-23T02:16:17.179Z,36.13
2019-03-23T02:18:45.386Z,34.95
2019-03-23T02:21:13.200Z,33.60
2019-03-23T02:23:40.719Z,31.95
2019-03-23T02:26:08.269Z,32.08
2019-03-23T02:28:35.827Z,32.13
2019-03-23T02:31:03.370Z,31.82
2019-03-23T02:33:31.499Z,31.20
2019-03-23T02:35:59.085Z,32.00
2019-03-23T02:38:26.847Z,31.80
2019-03-23T02:40:54.547Z,34.95
2019-03-23T02:43:22.568Z,34.43
2019-03-23T02:45:50.253Z,32.28
2019-03-23T02:48:18.334Z,34.05
2019-03-23T02:50:47.693Z,34.67
2019-03-23T02:53:15.887Z,35.35
2019-03-23T02:55:44.012Z,34.70
2019-03-23T02:58:11.536Z,37.42
2019-03-23T03:00:39.188Z,33.78
2019-03-23T03:03:06.827Z,35.60
2019-03-23T03:05:34.550Z,36.45
2019-03-23T03:08:02.556Z,37.50
2019-03-23T03:10:40.391Z,37.90
2019-03-23T03:13:09.309Z,36.83
2019-03-23T03:15:37.507Z,37.03
2019-03-23T03:18:06.379Z,37.70
2019-03-23T03:20:34.052Z,40.20
2019-03-23T03:23:02.772Z,36.40
2019-03-23T03:25:30.393Z,36.03
2019-03-23T03:27:58.223Z,39.18
2019-03-23T03:30:26.031Z,41.00
2019-03-23T03:32:53.628Z,41.50
2019-03-23T03:35:21.160Z,40.03
2019-03-23T03:37:56.569Z,40.33
2019-03-23T03:40:18.204Z,40.23
2019-03-23T03:42:45.846Z,40.85
2019-03-23T03:45:20.734Z,38.67
2019-03-23T03:47:48.679Z,41.20
2019-03-23T03:50:16.239Z,40.28
2019-03-23T03:52:43.778Z,38.88
2019-03-23T03:55:11.301Z,38.85
2019-03-23T03:57:39.156Z,42.25
2019-03-23T04:00:07.261Z,43.55
2019-03-23T04:02:35.214Z,42.90
2019-03-23T04:05:02.981Z,45.35
2019-03-23T04:07:30.611Z,47.45
2019-03-23T04:09:58.166Z,44.73
2019-03-23T04:12:25.675Z,41.98
2019-03-23T04:14:53.200Z,43.70
2019-03-23T04:17:21.142Z,43.92
2019-03-23T04:19:50.034Z,41.00
2019-03-23T04:22:17.546Z,40.63
2019-03-23T04:24:45.585Z,45.45
2019-03-23T04:27:13.165Z,43.17
2019-03-23T04:29:40.683Z,42.90
2019-03-23T04:32:08.534Z,44.42
2019-03-23T04:34:36.854Z,42.10
2019-03-23T04:37:04.479Z,44.93
2019-03-23T04:39:32.022Z,46.40
2019-03-23T04:41:59.826Z,45.78
2019-03-23T04:44:27.339Z,42.38
2019-03-23T04:46:55.179Z,45.43
2019-03-23T04:49:22.679Z,43.13
2019-03-23T04:51:50.226Z,40.70
2019-03-23T04:54:17.742Z,41.68
2019-03-23T04:56:45.381Z,41.70
2019-03-23T04:59:12.879Z,42.60
2019-03-23T05:01:40.433Z,41.60
2019-03-23T05:04:07.981Z,42.98
2019-03-23T05:06:36.174Z,42.50
2019-03-23T05:09:05.591Z,43.28
2019-03-23T05:11:33.513Z,42.35
2019-03-23T05:14:01.627Z,43.00
2019-03-23T05:16:29.525Z,42.40
2019-03-23T05:18:57.387Z,41.77
2019-03-23T05:21:25.115Z,43.78
2019-03-23T05:23:52.646Z,41.92
2019-03-23T05:26:20.270Z,42.00
2019-03-23T05:28:48.157Z,40.75
2019-03-23T05:31:15.634Z,43.17
2019-03-23T05:33:43.138Z,40.38
2019-03-23T05:36:10.683Z,41.60
2019-03-23T05:38:44.416Z,42.27
2019-03-23T05:41:07.614Z,42.00
2019-03-23T05:43:35.120Z,39.85
2019-03-23T05:46:02.739Z,38.40
2019-03-23T05:48:30.322Z,39.15
2019-03-23T05:50:57.822Z,38.42
2019-03-23T05:53:25.651Z,39.85
2019-03-23T05:55:54.287Z,39.45
2019-03-23T05:58:22.403Z,39.90
2019-03-23T06:00:49.915Z,38.25
2019-03-23T06:03:17.513Z,40.83
2019-03-23T06:05:45.030Z,40.00
2019-03-23T06:08:12.838Z,41.65
2019-03-23T06:10:41.518Z,41.83
2019-03-23T06:13:09.151Z,39.23
2019-03-23T06:15:36.745Z,42.00
2019-03-23T06:18:04.686Z,40.15
2019-03-23T06:20:32.258Z,42.00
2019-03-23T06:22:59.960Z,39.95
2019-03-23T06:25:27.508Z,42.65
2019-03-23T06:27:56.281Z,38.78
2019-03-23T06:30:24.147Z,39.40
2019-03-23T06:32:52.046Z,39.63
2019-03-23T06:35:19.628Z,39.00
2019-03-23T06:37:47.208Z,39.65
2019-03-23T06:40:15.233Z,38.80
2019-03-23T06:42:42.832Z,37.17
2019-03-23T06:45:11.006Z,38.80
2019-03-23T06:47:38.930Z,38.55
2019-03-23T06:50:08.378Z,41.77
2019-03-23T06:52:39.041Z,38.70
2019-03-23T06:55:07.190Z,39.33
2019-03-23T06:57:35.213Z,38.00
2019-03-23T07:00:04.216Z,37.00
2019-03-23T07:02:32.396Z,36.33
2019-03-23T07:04:59.915Z,37.10
2019-03-23T07:07:27.667Z,38.78
2019-03-23T07:09:55.194Z,38.13
2019-03-23T07:12:23.018Z,38.28
2019-03-23T07:14:50.550Z,39.13
2019-03-23T07:17:18.110Z,39.20
2019-03-23T07:19:46.004Z,37.95
2019-03-23T07:22:13.810Z,37.23
2019-03-23T07:24:41.327Z,37.13
2019-03-23T07:27:08.851Z,39.67
2019-03-23T07:29:36.656Z,38.08
2019-03-23T07:32:05.916Z,38.55
2019-03-23T07:34:33.806Z,37.17
2019-03-23T07:37:01.306Z,38.95
2019-03-23T07:39:30.493Z,36.05
2019-03-23T07:41:58.251Z,36.17
2019-03-23T07:44:25.808Z,37.17
2019-03-23T07:46:53.471Z,38.42
2019-03-23T07:49:21.138Z,36.38
2019-03-23T07:51:48.961Z,37.15
2019-03-23T07:54:16.569Z,36.70
2019-03-23T07:56:44.096Z,37.85
2019-03-23T07:59:11.886Z,37.58
2019-03-23T08:01:39.527Z,36.63
2019-03-23T08:04:07.234Z,38.90
2019-03-23T08:06:34.748Z,38.58
2019-03-23T08:09:03.891Z,36.40
2019-03-23T08:11:32.572Z,35.75
2019-03-23T08:14:00.408Z,35.15
2019-03-23T08:16:28.422Z,35.13
2019-03-23T08:18:55.943Z,36.23
2019-03-23T08:21:23.518Z,34.50
2019-03-23T08:23:51.185Z,35.40
2019-03-23T08:26:19.755Z,36.10
2019-03-23T08:28:47.533Z,37.58
2019-03-23T08:31:15.181Z,37.90
2019-03-23T08:33:42.843Z,36.25
2019-03-23T08:36:10.439Z,37.60
2019-03-23T08:38:38.348Z,35.95
2019-03-23T08:41:06.010Z,36.68
2019-03-23T08:43:34.040Z,35.60
2019-03-23T08:46:02.044Z,38.80
2019-03-23T08:48:30.091Z,33.63
2019-03-23T08:50:58.144Z,33.83
2019-03-23T08:53:25.696Z,36.17
2019-03-23T08:55:53.253Z,33.58
2019-03-23T08:58:29.743Z,35.75
2019-03-23T09:00:58.725Z,35.52
2019-03-23T09:03:26.451Z,35.48
2019-03-23T09:05:54.073Z,35.40
2019-03-23T09:08:22.131Z,33.08
2019-03-23T09:10:49.647Z,34.43
2019-03-23T09:13:17.276Z,35.50
2019-03-23T09:15:44.899Z,37.35
2019-03-23T09:18:12.680Z,36.05
2019-03-23T09:20:40.367Z,34.20
2019-03-23T09:23:07.956Z,36.30
2019-03-23T09:25:35.622Z,36.93
2019-03-23T09:28:03.319Z,34.35
2019-03-23T09:30:30.854Z,34.92
2019-03-23T09:32:58.747Z,35.38
2019-03-23T09:35:27.615Z,35.13
2019-03-23T09:37:55.168Z,33.67
2019-03-23T09:40:22.845Z,33.18
2019-03-23T09:42:50.727Z,32.60
2019-03-23T09:45:18.510Z,35.45
2019-03-23T09:47:46.669Z,34.60
2019-03-23T09:50:14.408Z,38.38
2019-03-23T09:52:42.034Z,36.58
2019-03-23T09:55:09.738Z,34.95
2019-03-23T09:57:37.627Z,35.52
2019-03-23T10:00:06.016Z,35.20
2019-03-23T10:02:33.623Z,38.92
2019-03-23T10:05:01.445Z,36.77
2019-03-23T10:07:29.028Z,35.40
2019-03-23T10:09:56.842Z,34.80
2019-03-23T10:12:24.703Z,34.53
2019-03-23T10:14:52.491Z,35.15
2019-03-23T10:17:20.006Z,34.88
2019-03-23T10:19:47.792Z,36.42
2019-03-23T10:22:15.690Z,34.38
2019-03-23T10:24:43.332Z,33.73
2019-03-23T10:27:10.874Z,35.50
2019-03-23T10:29:38.470Z,36.63
2019-03-23T10:32:05.998Z,35.65
2019-03-23T10:34:33.646Z,38.75
2019-03-23T10:37:01.460Z,35.58
2019-03-23T10:39:29.260Z,35.25
2019-03-23T10:41:56.899Z,36.50
2019-03-23T10:44:24.752Z,35.33
2019-03-23T10:46:52.518Z,36.65
2019-03-23T10:49:20.380Z,36.48
2019-03-23T10:51:48.334Z,36.75
2019-03-23T10:54:15.852Z,37.70
2019-03-23T10:56:43.488Z,34.18
2019-03-23T10:59:11.022Z,35.83
2019-03-23T11:01:38.780Z,36.70
2019-03-23T11:04:06.329Z,35.30
2019-03-23T11:06:34.018Z,34.63
2019-03-23T11:09:01.692Z,34.98
2019-03-23T11:11:30.178Z,37.50
2019-03-23T11:13:57.693Z,36.65
2019-03-23T11:16:25.466Z,36.13
2019-03-23T11:18:53.010Z,34.85
2019-03-23T11:21:21.727Z,35.68
2019-03-23T11:23:49.307Z,36.48
2019-03-23T11:26:16.938Z,35.20
2019-03-23T11:28:44.729Z,34.25
2019-03-23T11:31:12.582Z,35.03
2019-03-23T11:33:40.115Z,36.68
2019-03-23T11:36:07.735Z,34.23
2019-03-23T11:38:35.591Z,34.70
2019-03-23T11:41:03.214Z,36.30
2019-03-23T11:43:30.750Z,36.95
2019-03-23T11:45:59.043Z,34.35
2019-03-23T11:48:26.718Z,38.33
2019-03-23T11:50:54.624Z,37.58
2019-03-23T11:53:23.227Z,36.25
2019-03-23T11:55:50.868Z,37.23
2019-03-23T11:58:18.698Z,33.38
2019-03-23T12:00:46.559Z,34.65
2019-03-23T12:03:14.120Z,34.60
2019-03-23T12:05:41.637Z,36.38
2019-03-23T12:08:10.511Z,35.15
2019-03-23T12:10:38.026Z,36.45
2019-03-23T12:13:05.558Z,36.00
2019-03-23T12:15:33.115Z,35.45
2019-03-23T12:18:01.222Z,35.13
2019-03-23T12:20:28.787Z,36.70
2019-03-23T12:22:56.593Z,34.63
2019-03-23T12:25:24.786Z,35.48
2019-03-23T12:27:52.631Z,35.80
2019-03-23T12:30:20.574Z,35.90
2019-03-23T12:32:48.470Z,34.23
2019-03-23T12:35:16.247Z,33.53
2019-03-23T12:37:44.075Z,34.75
2019-03-23T12:40:12.293Z,33.35
2019-03-23T12:42:40.237Z,33.70
2019-03-23T12:45:08.142Z,31.52
2019-03-23T12:47:35.746Z,31.75
2019-03-23T12:50:04.318Z,30.40
2019-03-23T12:52:32.294Z,30.10
2019-03-23T12:55:00.128Z,29.20
2019-03-23T12:57:27.731Z,27.85
2019-03-23T12:59:55.646Z,27.02
2019-03-23T13:02:23.197Z,26.40
2019-03-23T13:04:51.250Z,26.05
2019-03-23T13:07:19.295Z,26.62
2019-03-23T13:09:47.418Z,25.80
2019-03-23T13:12:15.066Z,24.52
2019-03-23T13:14:42.759Z,24.57
2019-03-23T13:17:10.290Z,20.62
2019-03-23T13:19:39.270Z,22.50
2019-03-23T13:22:06.874Z,19.98
2019-03-23T13:24:35.027Z,20.32
2019-03-23T13:27:03.183Z,20.25
2019-03-23T13:29:30.795Z,20.48
2019-03-23T13:31:58.768Z,18.42
2019-03-23T13:34:26.427Z,17.27
2019-03-23T13:36:54.066Z,12.43
2019-03-23T13:39:21.677Z,9.65
2019-03-23T13:41:49.894Z,9.20
2019-03-23T13:44:18.644Z,8.28
2019-03-23T13:46:46.410Z,7.72
2019-03-23T13:49:13.929Z,7.35
2019-03-23T13:51:41.459Z,7.47
2019-03-23T13:54:09.076Z,7.65
2019-03-23T13:56:36.963Z,9.13
2019-03-23T13:59:04.730Z,6.58
2019-03-23T14:01:32.368Z,5.45
2019-03-23T14:04:00.251Z,3.90
2019-03-23T14:06:28.795Z,3.65
2019-03-23T14:08:56.510Z,2.87
2019-03-23T14:11:24.098Z,2.33
2019-03-23T14:13:52.314Z,2.12
2019-03-23T14:16:19.830Z,2.52
2019-03-23T14:18:47.531Z,2.30
2019-03-23T14:21:15.188Z,2.65
2019-03-23T14:23:42.698Z,2.25
2019-03-23T14:26:10.207Z,2.47
2019-03-23T14:28:37.847Z,2.72
2019-03-23T14:31:05.949Z,2.45
2019-03-23T14:33:33.846Z,2.05
2019-03-23T14:36:01.555Z,1.82
2019-03-23T14:38:30.578Z,1.72
2019-03-23T14:40:58.330Z,1.50
2019-03-23T14:43:26.028Z,1.80
2019-03-23T14:45:53.661Z,1.80
2019-03-23T14:48:21.283Z,1.90
2019-03-23T14:50:48.911Z,1.67
2019-03-23T14:53:16.676Z,2.17
2019-03-23T14:55:44.235Z,2.20
2019-03-23T14:58:11.797Z,2.27
2019-03-23T15:00:39.428Z,2.12
2019-03-23T15:03:06.966Z,2.92
2019-03-23T15:05:34.483Z,2.10
2019-03-23T15:08:02.414Z,2.12
2019-03-23T15:10:29.983Z,1.72
2019-03-23T15:13:08.697Z,3.25
2019-03-23T15:15:37.048Z,2.52
2019-03-23T15:18:04.677Z,2.87
2019-03-23T15:20:32.227Z,2.33
2019-03-23T15:22:59.860Z,3.47
2019-03-23T15:25:27.647Z,2.80
2019-03-23T15:27:55.595Z,2.25
2019-03-23T15:30:23.384Z,3.17
2019-03-23T15:32:51.390Z,2.67
2019-03-23T15:35:19.026Z,2.25
2019-03-23T15:37:46.566Z,2.80
2019-03-23T15:40:14.375Z,2.25
2019-03-23T15:42:42.034Z,3.10
2019-03-23T15:45:10.164Z,2.12
2019-03-23T15:47:37.756Z,2.87
2019-03-23T15:50:06.306Z,2.90
2019-03-23T15:52:33.835Z,2.80
2019-03-23T15:55:03.315Z,2.42
2019-03-23T15:57:31.400Z,2.50
2019-03-23T15:59:58.927Z,2.80
2019-03-23T16:02:26.548Z,4.35
2019-03-23T16:04:54.410Z,4.10
2019-03-23T16:07:29.473Z,2.55
2019-03-23T16:09:55.055Z,3.25
2019-03-23T16:12:22.814Z,2.70
2019-03-23T16:14:50.303Z,2.90
2019-03-23T16:17:17.895Z,2.47
2019-03-23T16:19:45.422Z,2.83
2019-03-23T16:22:13.146Z,3.40
2019-03-23T16:24:41.086Z,3.12
2019-03-23T16:27:08.623Z,2.72
2019-03-23T16:29:36.119Z,3.12
2019-03-23T16:32:03.734Z,3.02
2019-03-23T16:34:31.295Z,2.95
2019-03-23T16:36:58.802Z,4.12
2019-03-23T16:39:26.791Z,3.45
2019-03-23T16:41:54.329Z,3.85
2019-03-23T16:44:22.055Z,3.80
2019-03-23T16:46:50.111Z,4.12
2019-03-23T16:49:18.182Z,4.72
2019-03-23T16:51:45.816Z,4.78
2019-03-23T16:54:13.381Z,3.83
2019-03-23T16:56:40.875Z,3.35
2019-03-23T16:59:09.557Z,4.72
2019-03-23T17:01:37.218Z,3.90
2019-03-23T17:04:04.981Z,3.72
2019-03-23T17:06:32.551Z,3.37
2019-03-23T17:09:00.325Z,2.70
2019-03-23T17:11:28.153Z,3.37
2019-03-23T17:13:55.862Z,3.37
2019-03-23T17:16:23.731Z,3.30
2019-03-23T17:18:51.303Z,4.60
2019-03-23T17:21:18.774Z,4.70
2019-03-23T17:23:46.349Z,3.72
2019-03-23T17:26:14.286Z,3.35
2019-03-23T17:28:41.916Z,3.30
2019-03-23T17:31:10.673Z,3.10
2019-03-23T17:33:38.405Z,3.27
2019-03-23T17:36:06.206Z,4.08
2019-03-23T17:38:34.053Z,3.60
2019-03-23T17:41:01.858Z,3.02
2019-03-23T17:43:29.410Z,3.10
2019-03-23T17:45:57.093Z,3.47
2019-03-23T17:48:24.661Z,3.67
2019-03-23T17:50:52.278Z,3.90
2019-03-23T17:53:20.339Z,5.62
2019-03-23T17:55:48.042Z,4.90
2019-03-23T17:58:15.572Z,3.10
2019-03-23T18:00:43.770Z,4.08
2019-03-23T18:03:11.339Z,4.53
2019-03-23T18:05:39.507Z,3.77
2019-03-23T18:08:07.144Z,3.87
2019-03-23T18:10:35.331Z,3.85
2019-03-23T18:13:02.866Z,5.08
2019-03-23T18:15:30.507Z,4.70
2019-03-23T18:17:58.188Z,4.47
2019-03-23T18:20:28.297Z,3.50
2019-03-23T18:22:55.940Z,3.83
2019-03-23T18:25:23.659Z,3.85
2019-03-23T18:27:51.279Z,4.35
2019-03-23T18:30:47.238Z,4.58
2019-03-23T18:33:14.765Z,5.30
2019-03-23T18:35:42.381Z,4.58
2019-03-23T18:38:10.094Z,5.12
2019-03-23T18:40:38.223Z,6.05
2019-03-23T18:43:06.384Z,4.17
2019-03-23T18:45:34.464Z,4.40
2019-03-23T18:48:02.436Z,4.95
2019-03-23T18:50:30.061Z,4.03
2019-03-23T18:52:58.276Z,5.20
2019-03-23T18:55:30.442Z,4.92
2019-03-23T18:57:58.296Z,4.05
2019-03-23T19:00:35.496Z,5.45
2019-03-23T19:03:04.110Z,4.80
2019-03-23T19:05:32.222Z,5.40
2019-03-23T19:08:00.270Z,5.05
2019-03-23T19:10:28.207Z,5.10
2019-03-23T19:12:55.843Z,4.03
2019-03-23T19:15:23.618Z,4.50
2019-03-23T19:17:51.201Z,4.65
2019-03-23T19:20:18.706Z,5.20
2019-03-23T19:22:46.479Z,4.85
2019-03-23T19:25:18.185Z,6.75
2019-03-23T19:27:44.227Z,7.65
2019-03-23T19:30:13.392Z,3.98
2019-03-23T19:32:41.365Z,4.25
2019-03-23T19:35:09.275Z,4.33
2019-03-23T19:37:38.886Z,4.03
2019-03-23T19:40:07.186Z,3.98
2019-03-23T19:42:35.224Z,5.17
2019-03-23T19:45:04.751Z,5.05
2019-03-23T19:47:32.410Z,3.87
2019-03-23T19:50:00.430Z,4.30
2019-03-23T19:52:28.076Z,4.67
2019-03-23T19:54:56.899Z,4.58
2019-03-23T19:57:24.871Z,5.30
2019-03-23T19:59:52.995Z,4.17
2019-03-23T20:02:20.747Z,4.78
2019-03-23T20:04:48.259Z,4.20
2019-03-23T20:07:16.122Z,4.47
2019-03-23T20:09:43.654Z,5.50
2019-03-23T20:12:13.475Z,4.67
2019-03-23T20:14:41.779Z,5.03
2019-03-23T20:17:10.027Z,4.22
2019-03-23T20:19:40.048Z,4.45
2019-03-23T20:22:07.834Z,3.95
2019-03-23T20:24:35.982Z,4.97
2019-03-23T20:27:03.736Z,4.60
2019-03-23T20:29:31.550Z,5.50
2019-03-23T20:31:59.318Z,4.58
2019-03-23T20:34:26.990Z,5.35
2019-03-23T20:36:54.794Z,4.70
2019-03-23T20:39:22.816Z,5.28
2019-03-23T20:41:50.730Z,4.35
2019-03-23T20:44:18.746Z,5.78
2019-03-23T20:46:46.663Z,5.37
2019-03-23T20:49:15.182Z,4.95
2019-03-23T20:51:43.504Z,5.58
2019-03-23T20:54:11.158Z,4.90
2019-03-23T20:56:39.042Z,4.37
2019-03-23T20:59:06.810Z,5.37
2019-03-23T21:01:35.083Z,4.35
2019-03-23T21:04:02.751Z,4.58
2019-03-23T21:06:30.311Z,4.75
2019-03-23T21:08:57.962Z,5.33
2019-03-23T21:11:25.446Z,4.08
2019-03-23T21:13:52.940Z,4.53
2019-03-23T21:16:20.607Z,4.78
2019-03-23T21:18:48.227Z,5.60
2019-03-23T21:21:15.738Z,6.00
2019-03-23T21:23:44.305Z,4.40
2019-03-23T21:26:11.779Z,5.00
2019-03-23T21:28:39.625Z,5.25
2019-03-23T21:31:07.165Z,4.45
2019-03-23T21:33:38.893Z,5.55
2019-03-23T21:36:04.343Z,5.30
2019-03-23T21:38:31.931Z,6.10
2019-03-23T21:40:59.784Z,4.87
2019-03-23T21:43:27.581Z,7.50
2019-03-23T21:45:55.099Z,5.08
2019-03-23T21:48:22.695Z,4.90
2019-03-23T21:50:50.479Z,4.30
2019-03-23T21:53:19.686Z,12.03
2019-03-23T21:55:47.178Z,7.92
2019-03-23T21:58:14.696Z,4.47
2019-03-23T22:00:42.458Z,5.37
2019-03-23T22:03:09.975Z,4.83
2019-03-23T22:05:37.530Z,4.92
2019-03-23T22:08:05.224Z,4.67
2019-03-23T22:10:33.810Z,3.62
2019-03-23T22:13:02.649Z,4.28
2019-03-23T22:15:34.306Z,3.47
2019-03-23T22:18:01.979Z,5.75
2019-03-23T22:20:29.492Z,4.70
2019-03-23T22:22:58.353Z,4.58
2019-03-23T22:25:26.426Z,4.45
2019-03-23T22:27:54.108Z,5.28
2019-03-23T22:30:21.772Z,5.85
2019-03-23T22:32:49.599Z,6.15
2019-03-23T22:35:17.390Z,4.55
2019-03-23T22:37:45.258Z,4.28
2019-03-23T22:40:13.498Z,4.15
2019-03-23T22:42:41.260Z,5.33
2019-03-23T22:45:10.069Z,4.80
2019-03-23T22:47:39.427Z,5.33
2019-03-23T22:50:09.242Z,5.00
2019-03-23T22:52:37.095Z,4.92
2019-03-23T22:55:04.947Z,5.12
2019-03-23T22:57:32.467Z,4.40
2019-03-23T22:59:59.984Z,4.80
2019-03-23T23:02:27.967Z,5.47
2019-03-23T23:04:55.938Z,4.17
2019-03-23T23:07:23.472Z,5.58
2019-03-23T23:09:51.302Z,6.00
2019-03-23T23:12:19.830Z,6.08
2019-03-23T23:14:47.351Z,5.08
2019-03-23T23:17:14.862Z,5.45
2019-03-23T23:19:42.654Z,5.28
2019-03-23T23:22:10.134Z,4.80
2019-03-23T23:24:37.734Z,6.08
2019-03-23T23:27:05.275Z,5.65
2019-03-23T23:29:32.862Z,5.62
2019-03-23T23:32:00.451Z,6.03
2019-03-23T23:34:27.974Z,4.45
2019-03-23T23:36:55.630Z,5.25
2019-03-23T23:39:23.473Z,4.65
2019-03-23T23:41:51.024Z,5.05
2019-03-23T23:44:18.642Z,5.12
2019-03-23T23:46:46.175Z,6.58
2019-03-23T23:49:13.691Z,4.85
2019-03-23T23:51:49.843Z,4.53
2019-03-23T23:54:10.703Z,5.70
2019-03-23T23:56:38.349Z,4.47
2019-03-23T23:59:06.008Z,5.95
